PWSweather.com
Personal Weather Stations
Station Observations

BunburyAU

Lat: -33.378333, Lon: 115.651667

Elevation: 95

Station Type: Fine Offset WH2081

http://www.sedgleymanor.com/wx/index.htm

Latest ConditionsUpdated 9:00:01 PM GMT+08:08 Wednesday, Apr 16, 2014
Currently Today's Max Today's Min Today's Average
Temperature 61.7°F16.5°C 80.8°F27.1°C 51.3°F10.7°C 65.6°F18.7°C
Dew Point 53.3°F11.8°C 62.1°F16.7°C 50.3°F10.2°C 54.2°F12.3°C
Winds 0.2 mph SE0.3 kmh SE 3.4 mph WSW5.5 kmh WSW - 1.3 mph 2.1 kmh
Wind Gusts 1.6 mph2.6 kmh 10.7 mph17.2 kmh - -
Humidity 74% 100% 36% 71%
Pressure 30.12 in1020.0 mb 30.22 in1023.4 mb 30.10 in1019.3 mb -
Precipitation - 0.01 in0.3 mm - -
Hour Temp Dew Point Humidity Winds Wind Gusts Pressure Precip Precip Rate Daily Precip Total
09:00 PM 61.7°F16.5°C 53.3°F11.8°C 74% 0.2 mph SE0.3 kmh SE 1.6 mph2.6 kmh 30.12 in1020.0 mb 0.00 in0.0 mm 0.00 in/hr0.0 mm/hr 0.01 in0.3 mm
08:45 PM 62.1°F16.7°C 54.1°F12.3°C 75% 0.9 mph S1.4 kmh S 3.1 mph5.0 kmh 30.12 in1020.0 mb 0.00 in0.0 mm 0.00 in/hr0.0 mm/hr 0.01 in0.3 mm
08:30 PM 61.9°F16.6°C 54.2°F12.3°C 76% 0.3 mph S0.5 kmh S 3.1 mph5.0 kmh 30.12 in1020.0 mb 0.00 in0.0 mm 0.00 in/hr0.0 mm/hr 0.01 in0.3 mm
08:15 PM 62.2°F16.8°C 54.6°F12.6°C 76% 0.5 mph S0.8 kmh S 3.1 mph5.0 kmh 30.11 in1019.6 mb 0.00 in0.0 mm 0.00 in/hr0.0 mm/hr 0.01 in0.3 mm
08:00 PM 62.2°F16.8°C 53.9°F12.2°C 74% 0.2 mph WSW0.3 kmh WSW 3.1 mph5.0 kmh 30.11 in1019.6 mb 0.00 in0.0 mm 0.00 in/hr0.0 mm/hr 0.01 in0.3 mm
07:45 PM 63.0°F17.2°C 54.2°F12.3°C 73% 0.3 mph SSW0.5 kmh SSW 2.2 mph3.5 kmh 30.11 in1019.6 mb 0.00 in0.0 mm 0.00 in/hr0.0 mm/hr 0.01 in0.3 mm
07:30 PM 63.3°F17.4°C 54.2°F12.3°C 72% 0.2 mph SW0.3 kmh SW 2.2 mph3.5 kmh 30.11 in1019.6 mb 0.00 in0.0 mm 0.00 in/hr0.0 mm/hr 0.01 in0.3 mm
07:15 PM 63.9°F17.7°C 54.7°F12.6°C 72% 0.8 mph SW1.3 kmh SW 6.0 mph9.7 kmh 30.11 in1019.6 mb 0.00 in0.0 mm 0.00 in/hr0.0 mm/hr 0.01 in0.3 mm
07:00 PM 64.0°F17.8°C 54.5°F12.5°C 71% 0.8 mph WSW1.3 kmh WSW 4.5 mph7.2 kmh 30.11 in1019.6 mb 0.00 in0.0 mm 0.00 in/hr0.0 mm/hr 0.01 in0.3 mm
06:45 PM 64.0°F17.8°C 54.5°F12.5°C 71% 0.8 mph SW1.3 kmh SW 4.5 mph7.2 kmh 30.11 in1019.6 mb 0.00 in0.0 mm 0.00 in/hr0.0 mm/hr 0.01 in0.3 mm
06:30 PM 64.4°F18.0°C 54.8°F12.7°C 71% 0.7 mph W1.1 kmh W 4.5 mph7.2 kmh 30.11 in1019.6 mb 0.00 in0.0 mm 0.00 in/hr0.0 mm/hr 0.01 in0.3 mm
06:15 PM 64.9°F18.3°C 54.5°F12.5°C 69% 0.5 mph SSW0.8 kmh SSW 3.8 mph6.1 kmh 30.11 in1019.6 mb 0.00 in0.0 mm 0.00 in/hr0.0 mm/hr 0.01 in0.3 mm
06:00 PM 65.7°F18.7°C 54.8°F12.7°C 68% 1.2 mph WSW1.9 kmh WSW 5.4 mph8.7 kmh 30.10 in1019.3 mb 0.00 in0.0 mm 0.00 in/hr0.0 mm/hr 0.01 in0.3 mm
05:45 PM 66.7°F19.3°C 55.0°F12.8°C 66% 1.8 mph SW2.9 kmh SW 6.9 mph11.1 kmh 30.10 in1019.3 mb 0.00 in0.0 mm 0.00 in/hr0.0 mm/hr 0.01 in0.3 mm
05:30 PM 68.0°F20.0°C 55.0°F12.8°C 63% 1.7 mph SW2.7 kmh SW 4.5 mph7.2 kmh 30.10 in1019.3 mb 0.00 in0.0 mm 0.00 in/hr0.0 mm/hr 0.01 in0.3 mm
05:15 PM 68.7°F20.4°C 55.2°F12.9°C 62% 2.2 mph WSW3.5 kmh WSW 8.3 mph13.4 kmh 30.10 in1019.3 mb 0.00 in0.0 mm 0.00 in/hr0.0 mm/hr 0.01 in0.3 mm
05:00 PM 69.8°F21.0°C 54.9°F12.7°C 59% 3.4 mph WSW5.5 kmh WSW 10.7 mph17.2 kmh 30.11 in1019.6 mb 0.00 in0.0 mm 0.00 in/hr0.0 mm/hr 0.01 in0.3 mm
04:45 PM 73.9°F23.3°C 55.2°F12.9°C 52% 2.6 mph SW4.2 kmh SW 7.6 mph12.2 kmh 30.11 in1019.6 mb 0.00 in0.0 mm 0.00 in/hr0.0 mm/hr 0.01 in0.3 mm
04:30 PM 76.1°F24.5°C 54.4°F12.4°C 47% 2.1 mph SW3.4 kmh SW 8.3 mph13.4 kmh 30.10 in1019.3 mb 0.00 in0.0 mm 0.00 in/hr0.0 mm/hr 0.01 in0.3 mm
04:15 PM 75.9°F24.4°C 54.9°F12.7°C 48% 2.5 mph WNW4.0 kmh WNW 6.9 mph11.1 kmh 30.11 in1019.6 mb 0.00 in0.0 mm 0.00 in/hr0.0 mm/hr 0.01 in0.3 mm
04:00 PM 75.2°F24.0°C 54.8°F12.7°C 49% 3.3 mph WSW5.3 kmh WSW 9.8 mph15.8 kmh 30.11 in1019.6 mb 0.00 in0.0 mm 0.00 in/hr0.0 mm/hr 0.01 in0.3 mm
03:45 PM 77.4°F25.2°C 54.4°F12.4°C 45% 1.8 mph SSE2.9 kmh SSE 6.9 mph11.1 kmh 30.11 in1019.6 mb 0.00 in0.0 mm 0.00 in/hr0.0 mm/hr 0.01 in0.3 mm
03:30 PM 77.2°F25.1°C 53.0°F11.7°C 43% 2.2 mph SW3.5 kmh SW 6.9 mph11.1 kmh 30.11 in1019.6 mb 0.00 in0.0 mm 0.00 in/hr0.0 mm/hr 0.01 in0.3 mm
03:15 PM 76.6°F24.8°C 53.7°F12.1°C 45% 3.1 mph WSW5.0 kmh WSW 8.3 mph13.4 kmh 30.11 in1019.6 mb 0.00 in0.0 mm 0.00 in/hr0.0 mm/hr 0.01 in0.3 mm
03:00 PM 77.9°F25.5°C 53.6°F12.0°C 43% 2.4 mph WSW3.9 kmh WSW 10.7 mph17.2 kmh 30.12 in1020.0 mb 0.00 in0.0 mm 0.00 in/hr0.0 mm/hr 0.01 in0.3 mm
02:45 PM 77.2°F25.1°C 51.7°F10.9°C 41% 2.5 mph WNW4.0 kmh WNW 8.3 mph13.4 kmh 30.12 in1020.0 mb 0.00 in0.0 mm 0.00 in/hr0.0 mm/hr 0.01 in0.3 mm
02:30 PM 77.9°F25.5°C 52.3°F11.3°C 41% 2.7 mph W4.3 kmh W 7.6 mph12.2 kmh 30.12 in1020.0 mb 0.00 in0.0 mm 0.00 in/hr0.0 mm/hr 0.01 in0.3 mm
02:15 PM 78.1°F25.6°C 52.5°F11.4°C 41% 2.8 mph NW4.5 kmh NW 8.3 mph13.4 kmh 30.13 in1020.3 mb 0.00 in0.0 mm 0.00 in/hr0.0 mm/hr 0.01 in0.3 mm
02:00 PM 78.3°F25.7°C 52.0°F11.1°C 40% 2.7 mph W4.3 kmh W 6.9 mph11.1 kmh 30.13 in1020.3 mb 0.00 in0.0 mm 0.00 in/hr0.0 mm/hr 0.01 in0.3 mm
01:45 PM 78.6°F25.9°C 52.3°F11.3°C 40% 2.6 mph N4.2 kmh N 7.6 mph12.2 kmh 30.14 in1020.7 mb 0.00 in0.0 mm 0.00 in/hr0.0 mm/hr 0.01 in0.3 mm
01:30 PM 79.5°F26.4°C 50.3°F10.2°C 36% 2.1 mph W3.4 kmh W 5.4 mph8.7 kmh 30.14 in1020.7 mb 0.00 in0.0 mm 0.00 in/hr0.0 mm/hr 0.01 in0.3 mm
01:15 PM 77.5°F25.3°C 51.3°F10.7°C 40% 1.5 mph SW2.4 kmh SW 6.9 mph11.1 kmh 30.15 in1021.0 mb 0.00 in0.0 mm 0.00 in/hr0.0 mm/hr 0.01 in0.3 mm
01:00 PM 73.8°F23.2°C 50.5°F10.3°C 44% 3.2 mph N5.1 kmh N 8.3 mph13.4 kmh 30.16 in1021.3 mb 0.00 in0.0 mm 0.00 in/hr0.0 mm/hr 0.01 in0.3 mm
12:45 PM 73.6°F23.1°C 50.4°F10.2°C 44% 2.3 mph W3.7 kmh W 6.9 mph11.1 kmh 30.15 in1021.0 mb 0.00 in0.0 mm 0.00 in/hr0.0 mm/hr 0.01 in0.3 mm
12:30 PM 73.0°F22.8°C 51.1°F10.6°C 46% 2.5 mph NW4.0 kmh NW 6.0 mph9.7 kmh 30.16 in1021.3 mb 0.00 in0.0 mm 0.00 in/hr0.0 mm/hr 0.01 in0.3 mm
12:15 PM 75.4°F24.1°C 50.7°F10.4°C 42% 2.8 mph WSW4.5 kmh WSW 7.6 mph12.2 kmh 30.18 in1022.0 mb 0.00 in0.0 mm 0.00 in/hr0.0 mm/hr 0.01 in0.3 mm
12:00 PM 80.8°F27.1°C 52.8°F11.6°C 38% 2.6 mph SSW4.2 kmh SSW 7.6 mph12.2 kmh 30.17 in1021.7 mb 0.00 in0.0 mm 0.00 in/hr0.0 mm/hr 0.01 in0.3 mm
11:45 AM 79.5°F26.4°C 52.4°F11.3°C 39% 2.5 mph WSW4.0 kmh WSW 7.6 mph12.2 kmh 30.18 in1022.0 mb 0.00 in0.0 mm 0.00 in/hr0.0 mm/hr 0.01 in0.3 mm
11:30 AM 79.9°F26.6°C 53.4°F11.9°C 40% 1.8 mph N2.9 kmh N 6.0 mph9.7 kmh 30.19 in1022.4 mb 0.00 in0.0 mm 0.00 in/hr0.0 mm/hr 0.01 in0.3 mm
11:15 AM 79.0°F26.1°C 51.9°F11.1°C 39% 1.2 mph N1.9 kmh N 4.5 mph7.2 kmh 30.20 in1022.7 mb 0.00 in0.0 mm 0.00 in/hr0.0 mm/hr 0.01 in0.3 mm
11:00 AM 72.9°F22.7°C 52.1°F11.2°C 48% 1.6 mph SSE2.6 kmh SSE 5.4 mph8.7 kmh 30.21 in1023.0 mb 0.01 in0.3 mm 0.00 in/hr0.0 mm/hr 0.01 in0.3 mm
10:45 AM 72.5°F22.5°C 50.6°F10.3°C 46% 1.7 mph SE2.7 kmh SE 6.9 mph11.1 kmh 30.21 in1023.0 mb 0.01 in0.3 mm 0.00 in/hr0.0 mm/hr 0.01 in0.3 mm
10:30 AM 74.5°F23.6°C 51.8°F11.0°C 45% 0.9 mph SW1.4 kmh SW 3.1 mph5.0 kmh 30.21 in1023.0 mb 0.01 in0.3 mm 0.00 in/hr0.0 mm/hr 0.01 in0.3 mm
10:15 AM 77.5°F25.3°C 51.3°F10.7°C 40% 1.5 mph SSE2.4 kmh SSE 7.6 mph12.2 kmh 30.21 in1023.0 mb 0.01 in0.3 mm 0.04 in/hr1.0 mm/hr 0.01 in0.3 mm
10:00 AM 77.5°F25.3°C 52.7°F11.5°C 42% 1.6 mph ESE2.6 kmh ESE 4.5 mph7.2 kmh 30.22 in1023.4 mb 0.00 in0.0 mm 0.00 in/hr0.0 mm/hr 0.00 in0.0 mm
09:45 AM 77.0°F25.0°C 52.8°F11.6°C 43% 1.3 mph SE2.1 kmh SE 5.4 mph8.7 kmh 30.22 in1023.4 mb 0.00 in0.0 mm 0.00 in/hr0.0 mm/hr 0.00 in0.0 mm
09:30 AM 75.6°F24.2°C 53.9°F12.2°C 47% 1.6 mph NE2.6 kmh NE 4.5 mph7.2 kmh 30.21 in1023.0 mb 0.00 in0.0 mm 0.00 in/hr0.0 mm/hr 0.00 in0.0 mm
09:15 AM 73.4°F23.0°C 56.8°F13.8°C 56% 1.3 mph E2.1 kmh E 3.8 mph6.1 kmh 30.21 in1023.0 mb 0.00 in0.0 mm 0.00 in/hr0.0 mm/hr 0.00 in0.0 mm
09:00 AM 71.4°F21.9°C 58.2°F14.6°C 63% 1.2 mph E1.9 kmh E 3.1 mph5.0 kmh 30.22 in1023.4 mb 0.00 in0.0 mm 0.00 in/hr0.0 mm/hr 0.00 in0.0 mm
08:45 AM 71.2°F21.8°C 57.6°F14.2°C 62% 1.0 mph NE1.6 kmh NE 3.1 mph5.0 kmh 30.21 in1023.0 mb 0.00 in0.0 mm 0.00 in/hr0.0 mm/hr 0.00 in0.0 mm
08:30 AM 67.8°F19.9°C 59.6°F15.3°C 75% 0.7 mph ENE1.1 kmh ENE 3.1 mph5.0 kmh 30.22 in1023.4 mb 0.00 in0.0 mm 0.00 in/hr0.0 mm/hr 0.00 in0.0 mm
08:15 AM 63.3°F17.4°C 59.4°F15.2°C 87% 1.8 mph E2.9 kmh E 3.8 mph6.1 kmh 30.21 in1023.0 mb 0.00 in0.0 mm 0.00 in/hr0.0 mm/hr 0.00 in0.0 mm
08:00 AM 62.1°F16.7°C 62.1°F16.7°C 100% 0.5 mph SE0.8 kmh SE 3.1 mph5.0 kmh 30.21 in1023.0 mb 0.00 in0.0 mm 0.00 in/hr0.0 mm/hr 0.00 in0.0 mm
07:45 AM 57.0°F13.9°C 56.8°F13.8°C 99% 1.7 mph SE2.7 kmh SE 3.8 mph6.1 kmh 30.20 in1022.7 mb 0.00 in0.0 mm 0.00 in/hr0.0 mm/hr 0.00 in0.0 mm
07:30 AM 56.1°F13.4°C 55.9°F13.3°C 99% 0.2 mph E0.3 kmh E 2.2 mph3.5 kmh 30.21 in1023.0 mb 0.00 in0.0 mm 0.00 in/hr0.0 mm/hr 0.00 in0.0 mm
07:15 AM 53.1°F11.7°C 53.1°F11.7°C 100% 0.6 mph SE1.0 kmh SE 2.2 mph3.5 kmh 30.20 in1022.7 mb 0.00 in0.0 mm 0.00 in/hr0.0 mm/hr 0.00 in0.0 mm
07:00 AM 51.3°F10.7°C 51.0°F10.6°C 99% Calm Calm 0.7 mph1.1 kmh 30.19 in1022.4 mb 0.00 in0.0 mm 0.00 in/hr0.0 mm/hr 0.00 in0.0 mm
06:45 AM 51.3°F10.7°C 51.0°F10.6°C 99% 0.1 mph SE0.2 kmh SE 2.2 mph3.5 kmh 30.19 in1022.4 mb 0.00 in0.0 mm 0.00 in/hr0.0 mm/hr 0.00 in0.0 mm
06:30 AM 51.4°F10.8°C 51.2°F10.7°C 99% 0.4 mph SE0.6 kmh SE 2.2 mph3.5 kmh 30.19 in1022.4 mb 0.00 in0.0 mm 0.00 in/hr0.0 mm/hr 0.00 in0.0 mm
06:15 AM 51.3°F10.7°C 51.0°F10.6°C 99% 0.5 mph ESE0.8 kmh ESE 2.2 mph3.5 kmh 30.19 in1022.4 mb 0.00 in0.0 mm 0.00 in/hr0.0 mm/hr 0.00 in0.0 mm
06:00 AM 51.3°F10.7°C 51.0°F10.6°C 99% Calm Calm 0.7 mph1.1 kmh 30.18 in1022.0 mb 0.00 in0.0 mm 0.00 in/hr0.0 mm/hr 0.00 in0.0 mm
05:45 AM 52.3°F11.3°C 52.3°F11.3°C 100% 0.5 mph SSE0.8 kmh SSE 2.2 mph3.5 kmh 30.18 in1022.0 mb 0.00 in0.0 mm 0.00 in/hr0.0 mm/hr 0.00 in0.0 mm
05:30 AM 52.9°F11.6°C 52.9°F11.6°C 100% 0.3 mph SE0.5 kmh SE 2.2 mph3.5 kmh 30.18 in1022.0 mb 0.00 in0.0 mm 0.00 in/hr0.0 mm/hr 0.00 in0.0 mm
05:15 AM 54.0°F12.2°C 53.1°F11.7°C 97% 1.0 mph SSE1.6 kmh SSE 2.2 mph3.5 kmh 30.17 in1021.7 mb 0.00 in0.0 mm 0.00 in/hr0.0 mm/hr 0.00 in0.0 mm
05:00 AM 54.3°F12.4°C 53.5°F11.9°C 97% 0.8 mph S1.3 kmh S 2.2 mph3.5 kmh 30.18 in1022.0 mb 0.00 in0.0 mm 0.00 in/hr0.0 mm/hr 0.00 in0.0 mm
04:45 AM 54.5°F12.5°C 53.7°F12.1°C 97% 0.9 mph S1.4 kmh S 2.2 mph3.5 kmh 30.18 in1022.0 mb 0.00 in0.0 mm 0.00 in/hr0.0 mm/hr 0.00 in0.0 mm
04:30 AM 54.5°F12.5°C 53.7°F12.1°C 97% 1.1 mph SSE1.8 kmh SSE 3.1 mph5.0 kmh 30.17 in1021.7 mb 0.00 in0.0 mm 0.00 in/hr0.0 mm/hr 0.00 in0.0 mm
04:15 AM 55.0°F12.8°C 54.2°F12.3°C 97% 1.1 mph SSE1.8 kmh SSE 3.1 mph5.0 kmh 30.18 in1022.0 mb 0.00 in0.0 mm 0.00 in/hr0.0 mm/hr 0.00 in0.0 mm
04:00 AM 55.0°F12.8°C 54.2°F12.3°C 97% 0.8 mph SSE1.3 kmh SSE 2.2 mph3.5 kmh 30.18 in1022.0 mb 0.00 in0.0 mm 0.00 in/hr0.0 mm/hr 0.00 in0.0 mm
03:45 AM 54.7°F12.6°C 53.9°F12.2°C 97% 0.7 mph S1.1 kmh S 3.1 mph5.0 kmh 30.17 in1021.7 mb 0.00 in0.0 mm 0.00 in/hr0.0 mm/hr 0.00 in0.0 mm
03:30 AM 55.0°F12.8°C 54.2°F12.3°C 97% 1.2 mph S1.9 kmh S 3.1 mph5.0 kmh 30.17 in1021.7 mb 0.00 in0.0 mm 0.00 in/hr0.0 mm/hr 0.00 in0.0 mm
03:15 AM 55.4°F13.0°C 55.1°F12.8°C 99% 1.4 mph SSE2.3 kmh SSE 3.8 mph6.1 kmh 30.18 in1022.0 mb 0.00 in0.0 mm 0.00 in/hr0.0 mm/hr 0.00 in0.0 mm
03:00 AM 56.1°F13.4°C 55.9°F13.3°C 99% 1.6 mph S2.6 kmh S 3.8 mph6.1 kmh 30.17 in1021.7 mb 0.00 in0.0 mm 0.00 in/hr0.0 mm/hr 0.00 in0.0 mm
02:45 AM 56.8°F13.8°C 56.6°F13.7°C 99% 1.7 mph S2.7 kmh S 3.1 mph5.0 kmh 30.17 in1021.7 mb 0.00 in0.0 mm 0.00 in/hr0.0 mm/hr 0.00 in0.0 mm
02:30 AM 57.0°F13.9°C 56.8°F13.8°C 99% 1.3 mph SSE2.1 kmh SSE 3.1 mph5.0 kmh 30.18 in1022.0 mb 0.00 in0.0 mm 0.00 in/hr0.0 mm/hr 0.00 in0.0 mm
02:15 AM 56.7°F13.7°C 56.4°F13.6°C 99% 0.8 mph SSW1.3 kmh SSW 3.8 mph6.1 kmh 30.18 in1022.0 mb 0.00 in0.0 mm 0.00 in/hr0.0 mm/hr 0.00 in0.0 mm
02:00 AM 56.5°F13.6°C 56.2°F13.4°C 99% 0.6 mph S1.0 kmh S 1.6 mph2.6 kmh 30.18 in1022.0 mb 0.00 in0.0 mm 0.00 in/hr0.0 mm/hr 0.00 in0.0 mm
01:45 AM 56.3°F13.5°C 56.0°F13.3°C 99% 0.2 mph SSE0.3 kmh SSE 1.6 mph2.6 kmh 30.18 in1022.0 mb 0.00 in0.0 mm 0.00 in/hr0.0 mm/hr 0.00 in0.0 mm
01:30 AM 56.7°F13.7°C 56.4°F13.6°C 99% 0.3 mph SE0.5 kmh SE 1.6 mph2.6 kmh 30.19 in1022.4 mb 0.00 in0.0 mm 0.00 in/hr0.0 mm/hr 0.00 in0.0 mm
01:15 AM 57.2°F14.0°C 57.2°F14.0°C 100% Calm Calm 0.7 mph1.1 kmh 30.18 in1022.0 mb 0.00 in0.0 mm 0.00 in/hr0.0 mm/hr 0.00 in0.0 mm
01:00 AM 58.3°F14.6°C 58.3°F14.6°C 100% 0.8 mph SSE1.3 kmh SSE 3.1 mph5.0 kmh 30.18 in1022.0 mb 0.00 in0.0 mm 0.00 in/hr0.0 mm/hr 0.00 in0.0 mm
12:45 AM 58.6°F14.8°C 57.8°F14.3°C 97% 0.4 mph SW0.6 kmh SW 2.2 mph3.5 kmh 30.19 in1022.4 mb 0.00 in0.0 mm 0.00 in/hr0.0 mm/hr 0.00 in0.0 mm
12:30 AM 59.2°F15.1°C 58.1°F14.5°C 96% 0.1 mph WSW0.2 kmh WSW 1.6 mph2.6 kmh 30.19 in1022.4 mb 0.00 in0.0 mm 0.00 in/hr0.0 mm/hr 0.00 in0.0 mm
12:15 AM 59.5°F15.3°C 58.1°F14.5°C 95% 0.2 mph WSW0.3 kmh WSW 1.6 mph2.6 kmh 30.18 in1022.0 mb 0.00 in0.0 mm 0.00 in/hr0.0 mm/hr 0.00 in0.0 mm
12:00 AM 59.9°F15.5°C 58.5°F14.7°C 95% 0.3 mph SW0.5 kmh SW 2.2 mph3.5 kmh 30.18 in1022.0 mb 0.00 in0.0 mm 0.00 in/hr0.0 mm/hr 0.00 in0.0 mm